createdAt,value
2022-12-04T00:00:06.102Z,996.15
2022-12-04T00:01:06.088Z,996.10
2022-12-04T00:02:06.078Z,996.10
2022-12-04T00:03:06.279Z,996.08
2022-12-04T00:04:06.054Z,996.08
2022-12-04T00:05:06.161Z,996.06
2022-12-04T00:06:06.035Z,996.03
2022-12-04T00:07:06.014Z,995.99
2022-12-04T00:08:06.077Z,996.01
2022-12-04T00:09:05.991Z,995.99
2022-12-04T00:10:05.981Z,995.97
2022-12-04T00:11:05.968Z,996.03
2022-12-04T00:12:05.956Z,995.98
2022-12-04T00:13:05.953Z,996.01
2022-12-04T00:14:07.508Z,996.01
2022-12-04T00:16:06.012Z,996.05
2022-12-04T00:17:05.894Z,996.15
2022-12-04T00:18:05.887Z,996.10
2022-12-04T00:19:05.894Z,996.07
2022-12-04T00:20:05.861Z,996.07
2022-12-04T00:21:05.853Z,996.13
2022-12-04T00:22:05.838Z,996.07
2022-12-04T00:23:05.825Z,996.12
2022-12-04T00:24:05.814Z,996.16
2022-12-04T00:25:05.797Z,996.11
2022-12-04T00:26:05.787Z,996.14
2022-12-04T00:27:05.774Z,996.15
2022-12-04T00:28:05.764Z,996.12
2022-12-04T00:29:05.749Z,996.05
2022-12-04T00:30:05.738Z,996.00
2022-12-04T00:31:05.840Z,996.10
2022-12-04T00:32:05.811Z,996.09
2022-12-04T00:33:05.708Z,996.10
2022-12-04T00:34:08.031Z,996.13
2022-12-04T00:35:05.702Z,996.00
2022-12-04T00:36:05.666Z,996.06
2022-12-04T00:37:05.651Z,996.12
2022-12-04T00:38:05.640Z,996.16
2022-12-04T00:39:05.627Z,996.09
2022-12-04T00:40:05.616Z,996.15
2022-12-04T00:41:05.602Z,996.10
2022-12-04T00:42:05.590Z,996.13
2022-12-04T00:43:05.576Z,996.12
2022-12-04T00:44:05.566Z,996.06
2022-12-04T00:45:05.552Z,996.08
2022-12-04T00:46:05.649Z,996.10
2022-12-04T00:47:05.529Z,996.16
2022-12-04T00:48:05.516Z,996.13
2022-12-04T00:49:05.504Z,996.10
2022-12-04T00:50:05.493Z,996.12
2022-12-04T00:51:05.503Z,996.16
2022-12-04T00:52:05.474Z,996.14
2022-12-04T00:53:05.455Z,996.17
2022-12-04T00:54:05.444Z,996.18
2022-12-04T00:55:05.431Z,996.17
2022-12-04T00:56:05.420Z,996.16
2022-12-04T00:57:05.410Z,996.11
2022-12-04T00:58:05.394Z,996.17
2022-12-04T00:59:05.384Z,996.13
2022-12-04T01:00:05.374Z,996.18
2022-12-04T01:01:05.465Z,996.19
2022-12-04T01:02:05.348Z,996.12
2022-12-04T01:03:05.420Z,996.18
2022-12-04T01:04:05.322Z,996.17
2022-12-04T01:05:05.313Z,996.21
2022-12-04T01:06:05.304Z,996.13
2022-12-04T01:07:05.551Z,996.09
2022-12-04T01:08:05.401Z,996.14
2022-12-04T01:09:05.267Z,996.10
2022-12-04T01:10:05.253Z,996.08
2022-12-04T01:11:05.238Z,996.12
2022-12-04T01:12:05.225Z,996.12
2022-12-04T01:13:05.213Z,996.14
2022-12-04T01:14:05.203Z,996.12
2022-12-04T01:15:05.201Z,996.08
2022-12-04T01:16:05.255Z,996.00
2022-12-04T01:17:05.165Z,996.04
2022-12-04T01:18:05.153Z,996.04
2022-12-04T01:19:05.151Z,996.05
2022-12-04T01:20:05.134Z,996.03
2022-12-04T01:21:05.116Z,996.01
2022-12-04T01:22:05.118Z,996.06
2022-12-04T01:23:05.122Z,996.00
2022-12-04T01:24:05.091Z,996.14
2022-12-04T01:25:05.083Z,996.18
2022-12-04T01:26:05.065Z,996.03
2022-12-04T01:27:05.052Z,996.06
2022-12-04T01:28:05.033Z,995.93
2022-12-04T01:29:05.052Z,996.10
2022-12-04T01:30:05.014Z,995.92
2022-12-04T01:31:04.996Z,995.92
2022-12-04T01:32:05.091Z,995.88
2022-12-04T01:33:04.970Z,995.83
2022-12-04T01:34:04.960Z,995.85
2022-12-04T01:35:04.946Z,995.78
2022-12-04T01:36:04.934Z,995.81
2022-12-04T01:37:04.920Z,995.79
2022-12-04T01:38:04.912Z,995.80
2022-12-04T01:39:04.923Z,995.80
2022-12-04T01:40:04.891Z,995.81
2022-12-04T01:41:04.881Z,995.84
2022-12-04T01:42:04.863Z,995.80
2022-12-04T01:43:04.852Z,995.81
2022-12-04T01:44:04.842Z,995.84
2022-12-04T01:45:04.828Z,995.75
2022-12-04T01:46:04.893Z,995.78
2022-12-04T01:47:04.811Z,995.75
2022-12-04T01:48:04.790Z,995.78
2022-12-04T01:49:04.778Z,995.76
2022-12-04T01:50:04.764Z,995.77
2022-12-04T01:51:04.752Z,995.78
2022-12-04T01:52:04.743Z,995.75
2022-12-04T01:53:04.727Z,995.75
2022-12-04T01:54:04.720Z,995.77
2022-12-04T01:55:04.731Z,995.72
2022-12-04T01:56:04.692Z,995.75
2022-12-04T01:57:04.679Z,995.77
2022-12-04T01:58:04.672Z,995.82
2022-12-04T01:59:04.659Z,995.78
2022-12-04T02:00:04.647Z,995.80
2022-12-04T02:01:08.467Z,995.81
2022-12-04T02:02:04.734Z,995.80
2022-12-04T02:03:04.743Z,995.77
2022-12-04T02:04:04.606Z,995.81
2022-12-04T02:05:04.580Z,995.76
2022-12-04T02:06:04.571Z,995.78
2022-12-04T02:07:04.559Z,995.79
2022-12-04T02:08:04.655Z,995.75
2022-12-04T02:09:04.533Z,995.76
2022-12-04T02:10:04.523Z,995.75
2022-12-04T02:11:04.537Z,995.78
2022-12-04T02:12:04.502Z,995.78
2022-12-04T02:13:04.485Z,995.83
2022-12-04T02:14:04.477Z,995.86
2022-12-04T02:15:04.461Z,995.82
2022-12-04T02:16:04.582Z,995.84
2022-12-04T02:17:04.487Z,995.85
2022-12-04T02:18:04.435Z,995.83
2022-12-04T02:19:04.411Z,995.81
2022-12-04T02:20:04.400Z,995.78
2022-12-04T02:21:04.386Z,995.80
2022-12-04T02:22:04.377Z,995.84
2022-12-04T02:23:04.365Z,995.85
2022-12-04T02:24:04.355Z,995.79
2022-12-04T02:25:04.339Z,995.79
2022-12-04T02:26:04.328Z,995.86
2022-12-04T02:27:04.344Z,995.82
2022-12-04T02:28:04.307Z,995.78
2022-12-04T02:29:04.292Z,995.79
2022-12-04T02:30:04.280Z,995.76
2022-12-04T02:31:04.348Z,995.84
2022-12-04T02:32:04.255Z,995.82
2022-12-04T02:33:04.244Z,995.84
2022-12-04T02:34:04.237Z,995.87
2022-12-04T02:35:04.223Z,995.89
2022-12-04T02:36:04.207Z,995.88
2022-12-04T02:37:04.194Z,995.97
2022-12-04T02:38:04.205Z,996.04
2022-12-04T02:39:04.169Z,995.99
2022-12-04T02:40:04.159Z,996.06
2022-12-04T02:41:04.148Z,996.11
2022-12-04T02:42:04.134Z,996.09
2022-12-04T02:43:04.152Z,996.04
2022-12-04T02:44:04.111Z,996.02
2022-12-04T02:45:04.096Z,996.07
2022-12-04T02:46:04.171Z,996.04
2022-12-04T02:47:04.072Z,996.08
2022-12-04T02:48:04.058Z,996.06
2022-12-04T02:49:04.048Z,996.09
2022-12-04T02:50:04.035Z,996.11
2022-12-04T02:51:04.030Z,996.02
2022-12-04T02:52:04.011Z,996.03
2022-12-04T02:53:04.007Z,995.98
2022-12-04T02:54:03.987Z,995.95
2022-12-04T02:55:08.159Z,995.90
2022-12-04T02:56:03.960Z,995.99
2022-12-04T02:57:03.950Z,995.94
2022-12-04T02:58:03.936Z,995.95
2022-12-04T02:59:03.953Z,995.84
2022-12-04T03:00:03.920Z,995.90
2022-12-04T03:01:03.984Z,995.90
2022-12-04T03:02:03.968Z,995.91
2022-12-04T03:03:03.878Z,995.87
2022-12-04T03:04:03.866Z,995.88
2022-12-04T03:05:03.853Z,995.87
2022-12-04T03:06:03.840Z,995.89
2022-12-04T03:07:03.829Z,995.85
2022-12-04T03:08:03.904Z,995.91
2022-12-04T03:09:03.806Z,995.87
2022-12-04T03:10:03.791Z,995.90
2022-12-04T03:11:03.781Z,995.90
2022-12-04T03:12:03.765Z,995.91
2022-12-04T03:13:03.753Z,995.90
2022-12-04T03:14:03.740Z,995.94
2022-12-04T03:15:03.765Z,995.92
2022-12-04T03:16:03.716Z,995.95
2022-12-04T03:17:03.767Z,995.93
2022-12-04T03:18:03.696Z,995.92
2022-12-04T03:19:03.680Z,995.88
2022-12-04T03:20:03.672Z,995.90
2022-12-04T03:21:03.656Z,995.98
2022-12-04T03:22:03.641Z,995.99
2022-12-04T03:23:03.630Z,995.97
2022-12-04T03:24:03.618Z,996.01
2022-12-04T03:25:03.605Z,995.95
2022-12-04T03:26:03.598Z,995.93
2022-12-04T03:27:03.581Z,995.91
2022-12-04T03:28:03.570Z,995.96
2022-12-04T03:29:03.557Z,995.91
2022-12-04T03:30:03.545Z,995.86
2022-12-04T03:31:03.697Z,995.89
2022-12-04T03:32:03.521Z,995.89
2022-12-04T03:33:03.510Z,995.89
2022-12-04T03:34:03.497Z,995.85
2022-12-04T03:35:03.539Z,995.85
2022-12-04T03:36:03.479Z,995.90
2022-12-04T03:37:03.460Z,995.91
2022-12-04T03:38:03.456Z,995.91
2022-12-04T03:39:03.436Z,995.85
2022-12-04T03:40:03.427Z,995.86
2022-12-04T03:41:03.411Z,995.85
2022-12-04T03:42:03.400Z,995.85
2022-12-04T03:43:03.387Z,995.74
2022-12-04T03:44:03.376Z,995.85
2022-12-04T03:45:03.362Z,995.86
2022-12-04T03:46:03.467Z,995.89
2022-12-04T03:47:03.367Z,995.89
2022-12-04T03:48:03.328Z,995.95
2022-12-04T03:49:03.319Z,995.94
2022-12-04T03:50:03.323Z,995.92
2022-12-04T03:51:03.290Z,995.84
2022-12-04T03:52:03.288Z,995.93
2022-12-04T03:53:03.265Z,995.89
2022-12-04T03:54:03.253Z,995.88
2022-12-04T03:55:03.242Z,995.94
2022-12-04T03:56:03.228Z,995.85
2022-12-04T03:57:03.218Z,995.87
2022-12-04T03:58:03.206Z,995.84
2022-12-04T03:59:03.213Z,995.77
2022-12-04T04:00:03.469Z,995.83
2022-12-04T04:01:03.248Z,995.76
2022-12-04T04:02:03.255Z,995.79
2022-12-04T04:03:03.258Z,995.82
2022-12-04T04:04:03.128Z,995.78
2022-12-04T04:06:03.106Z,995.74
2022-12-04T04:07:03.093Z,995.76
2022-12-04T04:08:03.150Z,995.82
2022-12-04T04:09:03.069Z,995.80
2022-12-04T04:10:03.052Z,995.71
2022-12-04T04:11:03.043Z,995.72
2022-12-04T04:12:03.033Z,995.72
2022-12-04T04:13:03.021Z,995.81
2022-12-04T04:14:03.004Z,995.79
2022-12-04T04:15:03.003Z,995.72
2022-12-04T04:16:03.111Z,995.70
2022-12-04T04:17:02.965Z,995.68
2022-12-04T04:18:02.953Z,995.64
2022-12-04T04:19:02.968Z,995.72
2022-12-04T04:20:02.928Z,995.66
2022-12-04T04:21:02.916Z,995.71
2022-12-04T04:22:02.902Z,995.62
2022-12-04T04:23:02.894Z,995.65
2022-12-04T04:24:02.881Z,995.65
2022-12-04T04:25:02.864Z,995.61
2022-12-04T04:26:02.857Z,995.67
2022-12-04T04:27:02.841Z,995.65
2022-12-04T04:28:02.825Z,995.63
2022-12-04T04:29:02.813Z,995.66
2022-12-04T04:30:02.800Z,995.59
2022-12-04T04:31:02.880Z,995.62
2022-12-04T04:32:02.775Z,995.68
2022-12-04T04:33:02.767Z,995.71
2022-12-04T04:34:02.753Z,995.70
2022-12-04T04:35:02.769Z,995.76
2022-12-04T04:36:02.726Z,995.79
2022-12-04T04:37:02.714Z,995.75
2022-12-04T04:38:02.699Z,995.75
2022-12-04T04:39:02.687Z,995.71
2022-12-04T04:40:02.673Z,995.73
2022-12-04T04:41:02.664Z,995.77
2022-12-04T04:42:02.649Z,995.77
2022-12-04T04:43:02.637Z,995.76
2022-12-04T04:44:02.624Z,995.80
2022-12-04T04:45:02.616Z,995.80
2022-12-04T04:46:02.623Z,995.74
2022-12-04T04:47:02.589Z,995.71
2022-12-04T04:48:02.626Z,995.73
2022-12-04T04:49:02.579Z,995.70
2022-12-04T04:50:02.552Z,995.68
2022-12-04T04:51:02.566Z,995.69
2022-12-04T04:52:02.524Z,995.70
2022-12-04T04:53:02.513Z,995.67
2022-12-04T04:54:02.501Z,995.74
2022-12-04T04:55:02.492Z,995.74
2022-12-04T04:56:02.476Z,995.68
2022-12-04T04:57:02.467Z,995.77
2022-12-04T04:58:02.451Z,995.73
2022-12-04T04:59:02.443Z,995.76
2022-12-04T05:00:02.434Z,995.78
2022-12-04T05:01:02.422Z,995.80
2022-12-04T05:02:02.488Z,995.80
2022-12-04T05:03:02.491Z,995.81
2022-12-04T05:04:02.378Z,995.85
2022-12-04T05:05:02.368Z,995.83
2022-12-04T05:06:02.361Z,995.80
2022-12-04T05:07:02.370Z,995.84
2022-12-04T05:08:02.435Z,995.88
2022-12-04T05:09:02.321Z,995.83
2022-12-04T05:10:02.304Z,995.80
2022-12-04T05:11:02.292Z,995.87
2022-12-04T05:12:02.279Z,995.86
2022-12-04T05:13:02.270Z,995.83
2022-12-04T05:14:02.257Z,995.88
2022-12-04T05:15:02.245Z,995.87
2022-12-04T05:16:02.328Z,995.87
2022-12-04T05:17:03.810Z,995.91
2022-12-04T05:18:02.213Z,995.84
2022-12-04T05:19:02.198Z,995.87
2022-12-04T05:20:02.185Z,995.81
2022-12-04T05:21:02.174Z,995.85
2022-12-04T05:22:02.158Z,995.85
2022-12-04T05:23:02.179Z,995.85
2022-12-04T05:24:02.135Z,995.86
2022-12-04T05:25:02.131Z,995.87
2022-12-04T05:26:02.109Z,995.82
2022-12-04T05:27:02.100Z,995.84
2022-12-04T05:28:02.089Z,995.88
2022-12-04T05:29:02.074Z,995.84
2022-12-04T05:30:02.108Z,995.87
2022-12-04T05:31:02.178Z,995.85
2022-12-04T05:32:02.037Z,995.86
2022-12-04T05:33:02.036Z,995.89
2022-12-04T05:34:02.018Z,995.83
2022-12-04T05:35:06.405Z,995.75
2022-12-04T05:36:01.986Z,995.88
2022-12-04T05:37:01.975Z,995.86
2022-12-04T05:38:01.961Z,995.83
2022-12-04T05:39:01.978Z,995.84
2022-12-04T05:40:01.936Z,995.92
2022-12-04T05:41:01.923Z,995.82
2022-12-04T05:42:01.912Z,995.85
2022-12-04T05:43:01.901Z,995.85
2022-12-04T05:44:01.885Z,995.83
2022-12-04T05:45:01.878Z,995.85
2022-12-04T05:46:01.862Z,995.80
2022-12-04T05:47:01.919Z,995.82
2022-12-04T05:48:01.837Z,995.83
2022-12-04T05:49:01.827Z,995.79
2022-12-04T05:50:01.815Z,995.84
2022-12-04T05:51:01.803Z,995.82
2022-12-04T05:52:01.787Z,995.82
2022-12-04T05:53:01.776Z,995.89
2022-12-04T05:54:01.762Z,995.88
2022-12-04T05:55:01.781Z,995.88
2022-12-04T05:56:01.739Z,995.89
2022-12-04T05:57:01.726Z,995.91
2022-12-04T05:58:01.713Z,995.85
2022-12-04T05:59:01.704Z,995.82
2022-12-04T06:00:01.689Z,995.79
2022-12-04T06:01:01.679Z,995.82
2022-12-04T06:02:01.751Z,995.80
2022-12-04T06:03:01.698Z,995.84
2022-12-04T06:04:01.641Z,995.80
2022-12-04T06:05:01.629Z,995.86
2022-12-04T06:06:01.615Z,995.82
2022-12-04T06:07:01.603Z,995.83
2022-12-04T06:08:01.662Z,995.85
2022-12-04T06:09:01.605Z,995.69
2022-12-04T06:10:01.580Z,995.80
2022-12-04T06:11:01.582Z,995.84
2022-12-04T06:12:01.542Z,995.81
2022-12-04T06:13:01.532Z,995.87
2022-12-04T06:14:01.527Z,995.87
2022-12-04T06:15:01.508Z,995.82
2022-12-04T06:16:01.571Z,995.88
2022-12-04T06:17:01.484Z,995.87
2022-12-04T06:18:01.471Z,995.90
2022-12-04T06:19:01.459Z,995.89
2022-12-04T06:20:03.288Z,995.96
2022-12-04T06:21:01.560Z,995.92
2022-12-04T06:22:01.423Z,995.90
2022-12-04T06:23:01.411Z,995.92
2022-12-04T06:24:01.397Z,995.92
2022-12-04T06:25:01.386Z,995.99
2022-12-04T06:26:06.793Z,995.98
2022-12-04T06:28:03.350Z,995.99
2022-12-04T06:29:01.371Z,996.04
2022-12-04T06:30:01.327Z,996.07
2022-12-04T06:31:01.313Z,996.01
2022-12-04T06:32:01.456Z,996.07
2022-12-04T06:33:01.288Z,996.06
2022-12-04T06:34:01.281Z,996.05
2022-12-04T06:35:01.263Z,996.06
2022-12-04T06:36:01.249Z,995.95
2022-12-04T06:37:01.239Z,996.07
2022-12-04T06:38:01.226Z,996.06
2022-12-04T06:39:01.213Z,996.07
2022-12-04T06:40:01.201Z,995.99
2022-12-04T06:41:01.188Z,996.01
2022-12-04T06:42:01.188Z,995.94
2022-12-04T06:43:01.192Z,996.03
2022-12-04T06:44:01.149Z,996.04
2022-12-04T06:45:01.138Z,996.05
2022-12-04T06:46:01.197Z,996.05
2022-12-04T06:47:01.377Z,996.01
2022-12-04T06:48:01.099Z,996.05
2022-12-04T06:49:01.092Z,996.04
2022-12-04T06:50:01.077Z,996.06
2022-12-04T06:51:01.064Z,996.04
2022-12-04T06:52:01.050Z,996.03
2022-12-04T06:53:06.584Z,996.11
2022-12-04T06:54:01.025Z,996.12
2022-12-04T06:55:01.015Z,996.16
2022-12-04T06:56:01.000Z,996.21
2022-12-04T06:57:00.989Z,996.21
2022-12-04T06:58:00.977Z,996.20
2022-12-04T06:59:01.094Z,996.22
2022-12-04T07:00:00.955Z,996.15
2022-12-04T07:01:00.996Z,996.16
2022-12-04T07:02:00.987Z,996.13
2022-12-04T07:03:00.919Z,996.12
2022-12-04T07:04:00.904Z,996.11
2022-12-04T07:05:00.893Z,996.14
2022-12-04T07:06:00.880Z,996.07
2022-12-04T07:07:00.866Z,996.17
2022-12-04T07:08:00.942Z,996.14
2022-12-04T07:09:00.846Z,996.13
2022-12-04T07:10:00.831Z,996.11
2022-12-04T07:11:00.819Z,996.17
2022-12-04T07:12:00.807Z,996.17
2022-12-04T07:13:00.795Z,996.14
2022-12-04T07:14:00.783Z,996.15
2022-12-04T07:15:00.797Z,996.18
2022-12-04T07:16:00.969Z,996.11
2022-12-04T07:17:00.829Z,996.19
2022-12-04T07:18:00.733Z,996.04
2022-12-04T07:19:00.724Z,996.03
2022-12-04T07:20:00.709Z,996.05
2022-12-04T07:21:00.697Z,996.03
2022-12-04T07:22:00.685Z,995.99
2022-12-04T07:23:06.924Z,996.01
2022-12-04T07:24:00.663Z,995.98
2022-12-04T07:25:00.664Z,995.96
2022-12-04T07:26:00.636Z,995.93
2022-12-04T07:27:00.626Z,995.98
2022-12-04T07:28:00.614Z,995.94
2022-12-04T07:29:00.626Z,995.97
2022-12-04T07:30:00.589Z,995.94
2022-12-04T07:31:00.604Z,995.97
2022-12-04T07:32:00.693Z,995.95
2022-12-04T07:33:00.553Z,995.93
2022-12-04T07:34:00.535Z,996.01
2022-12-04T07:35:00.527Z,995.98
2022-12-04T07:36:00.511Z,996.07
2022-12-04T07:37:00.497Z,996.04
2022-12-04T07:38:00.486Z,995.99
2022-12-04T07:39:00.473Z,996.01
2022-12-04T07:40:00.463Z,995.95
2022-12-04T07:41:00.451Z,995.98
2022-12-04T07:42:00.437Z,995.94
2022-12-04T07:43:00.424Z,995.99
2022-12-04T07:44:00.430Z,995.96
2022-12-04T07:45:00.404Z,995.93
2022-12-04T07:46:00.484Z,995.98
2022-12-04T07:47:00.404Z,995.98
2022-12-04T07:48:00.365Z,995.95
2022-12-04T07:49:00.356Z,996.01
2022-12-04T07:50:00.340Z,995.98
2022-12-04T07:51:00.328Z,995.96
2022-12-04T07:52:00.315Z,995.98
2022-12-04T07:53:00.302Z,995.98
2022-12-04T07:54:03.588Z,995.95
2022-12-04T07:55:00.279Z,996.01
2022-12-04T07:56:00.266Z,995.98
2022-12-04T07:57:00.255Z,995.97
2022-12-04T07:58:00.246Z,995.96
2022-12-04T07:59:00.265Z,995.97
2022-12-04T08:00:00.221Z,995.96
2022-12-04T08:01:00.264Z,995.98
2022-12-04T08:02:00.305Z,995.87
2022-12-04T08:03:00.208Z,995.91
2022-12-04T08:04:00.295Z,995.95
2022-12-04T08:05:00.273Z,995.94
2022-12-04T08:06:00.148Z,995.90
2022-12-04T08:07:00.134Z,995.88
2022-12-04T08:08:00.219Z,995.91
2022-12-04T08:09:03.638Z,995.89
2022-12-04T08:10:00.114Z,995.94
2022-12-04T08:11:00.084Z,995.92
2022-12-04T08:12:00.074Z,995.94
2022-12-04T08:13:00.060Z,995.93
2022-12-04T08:14:00.058Z,995.93
2022-12-04T08:15:00.057Z,995.98
2022-12-04T08:16:00.040Z,995.95
2022-12-04T08:17:00.089Z,995.91
2022-12-04T08:18:00.001Z,995.92
2022-12-04T08:19:00.017Z,996.03
2022-12-04T08:19:59.976Z,995.94
2022-12-04T08:20:59.964Z,995.93
2022-12-04T08:21:59.952Z,995.89
2022-12-04T08:22:59.939Z,995.91
2022-12-04T08:23:59.934Z,995.89
2022-12-04T08:24:59.915Z,995.91
2022-12-04T08:25:59.910Z,995.86
2022-12-04T08:26:59.890Z,995.87
2022-12-04T08:27:59.884Z,995.87
2022-12-04T08:28:59.868Z,995.84
2022-12-04T08:29:59.861Z,995.87
2022-12-04T08:30:59.951Z,995.85
2022-12-04T08:31:59.833Z,995.86
2022-12-04T08:32:59.828Z,995.86
2022-12-04T08:33:59.805Z,995.92
2022-12-04T08:34:59.833Z,995.93
2022-12-04T08:35:59.780Z,995.94
2022-12-04T08:36:59.765Z,995.94
2022-12-04T08:37:59.754Z,995.93
2022-12-04T08:38:59.740Z,995.98
2022-12-04T08:39:59.728Z,995.88
2022-12-04T08:40:59.714Z,995.90
2022-12-04T08:41:59.704Z,995.88
2022-12-04T08:42:59.689Z,995.85
2022-12-04T08:43:59.709Z,995.89
2022-12-04T08:44:59.663Z,995.85
2022-12-04T08:45:59.749Z,995.90
2022-12-04T08:46:59.637Z,995.90
2022-12-04T08:47:59.627Z,995.94
2022-12-04T08:48:59.613Z,995.97
2022-12-04T08:49:59.601Z,996.01
2022-12-04T08:50:59.616Z,995.97
2022-12-04T08:51:59.578Z,996.02
2022-12-04T08:52:59.561Z,996.04
2022-12-04T08:53:59.550Z,996.04
2022-12-04T08:54:59.535Z,996.01
2022-12-04T08:55:59.527Z,996.01
2022-12-04T08:56:59.510Z,996.01
2022-12-04T08:57:59.498Z,996.01
2022-12-04T08:58:59.484Z,996.04
2022-12-04T08:59:59.474Z,996.05
2022-12-04T09:00:59.493Z,996.04
2022-12-04T09:01:59.538Z,996.07
2022-12-04T09:02:59.437Z,995.99
2022-12-04T09:03:59.495Z,996.00
2022-12-04T09:04:59.406Z,996.05
2022-12-04T09:05:59.391Z,995.94
2022-12-04T09:06:59.404Z,995.92
2022-12-04T09:07:59.456Z,996.00
2022-12-04T09:08:59.349Z,996.02
2022-12-04T09:09:59.547Z,996.02
2022-12-04T09:10:59.322Z,996.02
2022-12-04T09:11:59.312Z,996.01
2022-12-04T09:12:59.296Z,995.96
2022-12-04T09:13:59.283Z,995.97
2022-12-04T09:14:59.269Z,995.90
2022-12-04T09:15:59.339Z,995.90
2022-12-04T09:16:59.243Z,995.89
2022-12-04T09:17:59.231Z,995.92
2022-12-04T09:18:59.220Z,995.88
2022-12-04T09:20:01.170Z,995.94
2022-12-04T09:20:59.191Z,995.93
2022-12-04T09:21:59.180Z,995.86
2022-12-04T09:23:04.344Z,995.86
2022-12-04T09:23:59.152Z,995.92
2022-12-04T09:24:59.138Z,995.90
2022-12-04T09:25:59.132Z,995.93
2022-12-04T09:26:59.121Z,995.88
2022-12-04T09:27:59.102Z,995.88
2022-12-04T09:28:59.086Z,995.93
2022-12-04T09:29:59.074Z,995.91
2022-12-04T09:30:59.118Z,995.90
2022-12-04T09:31:59.046Z,995.88
2022-12-04T09:32:59.033Z,995.92
2022-12-04T09:33:59.035Z,995.92
2022-12-04T09:34:59.007Z,995.89
2022-12-04T09:35:58.996Z,995.91
2022-12-04T09:36:58.980Z,995.88
2022-12-04T09:37:58.970Z,995.84
2022-12-04T09:38:58.981Z,995.82
2022-12-04T09:39:58.943Z,995.85
2022-12-04T09:40:58.928Z,995.84
2022-12-04T09:41:58.916Z,995.80
2022-12-04T09:42:58.902Z,995.72
2022-12-04T09:43:58.889Z,995.71
2022-12-04T09:44:58.874Z,995.71
2022-12-04T09:45:58.913Z,995.70
2022-12-04T09:46:58.955Z,995.74
2022-12-04T09:47:58.837Z,995.72
2022-12-04T09:48:58.826Z,995.79
2022-12-04T09:49:59.048Z,995.71
2022-12-04T09:50:58.796Z,995.77
2022-12-04T09:51:58.784Z,995.71
2022-12-04T09:52:58.777Z,995.76
2022-12-04T09:53:58.758Z,995.74
2022-12-04T09:54:58.771Z,995.63
2022-12-04T09:55:58.730Z,995.67
2022-12-04T09:56:58.716Z,995.68
2022-12-04T09:58:02.189Z,995.73
2022-12-04T09:58:58.690Z,995.77
2022-12-04T09:59:58.925Z,995.72
2022-12-04T10:00:58.664Z,995.72
2022-12-04T10:01:58.652Z,995.77
2022-12-04T10:02:58.722Z,995.76
2022-12-04T10:04:04.287Z,995.82
2022-12-04T10:04:58.611Z,995.86
2022-12-04T10:05:58.614Z,995.86
2022-12-04T10:06:58.585Z,995.82
2022-12-04T10:07:58.637Z,995.78
2022-12-04T10:08:58.559Z,995.79
2022-12-04T10:09:58.895Z,995.66
2022-12-04T10:10:58.560Z,995.64
2022-12-04T10:11:58.524Z,995.62
2022-12-04T10:12:58.505Z,995.62
2022-12-04T10:13:58.493Z,995.65
2022-12-04T10:14:58.479Z,995.64
2022-12-04T10:15:58.532Z,995.55
2022-12-04T10:16:58.452Z,995.57
2022-12-04T10:17:58.440Z,995.52
2022-12-04T10:18:58.426Z,995.45
2022-12-04T10:19:58.714Z,995.34
2022-12-04T10:20:58.400Z,995.36
2022-12-04T10:21:58.387Z,995.33
2022-12-04T10:22:58.371Z,995.38
2022-12-04T10:23:58.360Z,995.49
2022-12-04T10:24:58.346Z,995.50
2022-12-04T10:25:58.333Z,995.54
2022-12-04T10:26:58.348Z,995.50
2022-12-04T10:27:58.307Z,995.46
2022-12-04T10:28:58.297Z,995.36
2022-12-04T10:29:58.718Z,995.41
2022-12-04T10:30:58.337Z,995.39
2022-12-04T10:31:58.256Z,995.39
2022-12-04T10:32:58.242Z,995.45
2022-12-04T10:33:58.229Z,995.47
2022-12-04T10:34:58.216Z,995.46
2022-12-04T10:35:58.206Z,995.45
2022-12-04T10:36:58.266Z,995.50
2022-12-04T10:37:58.181Z,995.46
2022-12-04T10:38:58.164Z,995.43
2022-12-04T10:39:58.456Z,995.51
2022-12-04T10:40:58.140Z,995.48
2022-12-04T10:41:58.125Z,995.48
2022-12-04T10:42:58.146Z,995.46
2022-12-04T10:43:58.102Z,995.47
2022-12-04T10:44:58.086Z,995.45
2022-12-04T10:45:58.076Z,995.42
2022-12-04T10:46:58.165Z,995.36
2022-12-04T10:47:58.050Z,995.35
2022-12-04T10:48:58.044Z,995.39
2022-12-04T10:49:58.260Z,995.25
2022-12-04T10:50:58.027Z,995.34
2022-12-04T10:51:58.000Z,995.25
2022-12-04T10:52:57.988Z,995.25
2022-12-04T10:53:57.973Z,995.29
2022-12-04T10:54:57.959Z,995.29
2022-12-04T10:55:57.947Z,995.29
2022-12-04T10:56:58.021Z,995.29
2022-12-04T10:57:57.921Z,995.28
2022-12-04T10:58:57.933Z,995.27
2022-12-04T10:59:58.246Z,995.27
2022-12-04T11:00:57.884Z,995.26
2022-12-04T11:02:02.998Z,995.23
2022-12-04T11:02:59.936Z,995.27
2022-12-04T11:03:57.894Z,995.23
2022-12-04T11:04:57.831Z,995.22
2022-12-04T11:05:57.818Z,995.25
2022-12-04T11:06:57.805Z,995.16
2022-12-04T11:07:57.875Z,995.18
2022-12-04T11:08:57.782Z,995.17
2022-12-04T11:09:58.331Z,995.17
2022-12-04T11:10:57.752Z,995.16
2022-12-04T11:11:57.744Z,995.11
2022-12-04T11:12:57.731Z,995.12
2022-12-04T11:13:57.715Z,995.09
2022-12-04T11:14:57.729Z,995.14
2022-12-04T11:15:57.767Z,995.12
2022-12-04T11:16:57.677Z,995.14
2022-12-04T11:17:57.663Z,995.09
2022-12-04T11:18:57.652Z,995.10
2022-12-04T11:19:57.914Z,995.10
2022-12-04T11:20:57.627Z,995.01
2022-12-04T11:21:57.611Z,995.01
2022-12-04T11:22:57.602Z,995.04
2022-12-04T11:23:57.585Z,995.00
2022-12-04T11:24:57.575Z,994.97
2022-12-04T11:26:03.830Z,994.94
2022-12-04T11:26:57.547Z,994.98
2022-12-04T11:27:57.534Z,994.92
2022-12-04T11:28:57.521Z,994.97
2022-12-04T11:29:57.878Z,994.93
2022-12-04T11:30:57.647Z,994.92
2022-12-04T11:32:01.429Z,994.91
2022-12-04T11:32:57.475Z,994.83
2022-12-04T11:33:57.461Z,994.82
2022-12-04T11:34:57.446Z,994.80
2022-12-04T11:35:57.431Z,994.78
2022-12-04T11:36:57.422Z,994.74
2022-12-04T11:37:57.406Z,994.75
2022-12-04T11:38:57.397Z,994.81
2022-12-04T11:39:57.803Z,994.81
2022-12-04T11:40:57.370Z,994.77
2022-12-04T11:41:57.359Z,994.72
2022-12-04T11:42:57.344Z,994.80
2022-12-04T11:44:00.170Z,994.77
2022-12-04T11:44:57.325Z,994.75
2022-12-04T11:45:57.307Z,994.74
2022-12-04T11:46:57.517Z,994.77
2022-12-04T11:47:57.283Z,994.74
2022-12-04T11:48:57.269Z,994.79
2022-12-04T11:49:57.595Z,994.81
2022-12-04T11:50:57.244Z,994.79
2022-12-04T11:51:57.233Z,994.82
2022-12-04T11:52:57.218Z,994.78
2022-12-04T11:53:57.205Z,994.83
2022-12-04T11:54:57.196Z,994.76
2022-12-04T11:55:57.179Z,994.78
2022-12-04T11:56:57.172Z,994.73
2022-12-04T11:57:57.153Z,994.67
2022-12-04T11:58:57.142Z,994.64
2022-12-04T11:59:57.562Z,994.63
2022-12-04T12:00:57.117Z,994.63
2022-12-04T12:01:58.666Z,994.65
2022-12-04T12:02:57.280Z,994.62
2022-12-04T12:03:57.075Z,994.61
2022-12-04T12:04:57.063Z,994.66
2022-12-04T12:06:57.038Z,994.61
2022-12-04T12:08:02.427Z,994.51
2022-12-04T12:08:57.013Z,994.55
2022-12-04T12:09:57.321Z,994.52
2022-12-04T12:10:56.988Z,994.48
2022-12-04T12:11:56.974Z,994.53
2022-12-04T12:12:56.962Z,994.53
2022-12-04T12:13:56.948Z,994.52
2022-12-04T12:14:57.222Z,994.49
2022-12-04T12:15:56.924Z,994.61
2022-12-04T12:16:56.915Z,994.64
2022-12-04T12:17:56.897Z,994.65
2022-12-04T12:18:56.918Z,994.68
2022-12-04T12:19:57.233Z,994.68
2022-12-04T12:20:56.860Z,994.72
2022-12-04T12:21:58.749Z,994.68
2022-12-04T12:22:56.835Z,994.74
2022-12-04T12:23:56.821Z,994.85
2022-12-04T12:24:57.024Z,994.77
2022-12-04T12:25:56.804Z,994.80
2022-12-04T12:26:56.785Z,994.80
2022-12-04T12:27:56.782Z,994.84
2022-12-04T12:28:56.764Z,994.73
2022-12-04T12:29:57.111Z,994.78
2022-12-04T12:31:01.089Z,994.77
2022-12-04T12:31:56.803Z,994.79